PWSweather.com
Personal Weather Stations
Station Observations
STPETERS
BroadstairsGB

BroadstairsGB

Lat: 51.37, Lon: 1.423

Elevation: 141

Station Type: WH1081

Latest ConditionsUpdated 10:00:02 AM GMT Monday, Sep 22, 2014
Currently Today's Max Today's Min Today's Average
Temperature 59.2°F15.1°C 59.2°F15.1°C 55.8°F13.2°C 57.0°F13.9°C
Dew Point 48.6°F9.2°C 50.8°F10.4°C 44.4°F6.9°C 48.0°F8.9°C
Winds 8.4 mph NNW13.5 kmh NNW 12.7 mph N20.4 kmh N - 10.7 mph 17.2 kmh
Wind Gusts 11.4 mph18.3 kmh 18.3 mph29.5 kmh - -
Humidity 68% 78% 65% 72%
Pressure 30.26 in1024.7 mb 30.27 in1025.1 mb 30.25 in1024.4 mb -
Precipitation - 0.01 in0.3 mm - -
Hour Temp Dew Point Humidity Winds Wind Gusts Pressure Precip Precip Rate Daily Precip Total
10:00 AM 59.2°F15.1°C 48.6°F9.2°C 68% 8.4 mph NNW13.5 kmh NNW 11.4 mph18.3 kmh 30.26 in1024.7 mb 0.01 in0.3 mm 0.00 in/hr0.0 mm/hr 0.01 in0.3 mm
09:45 AM 59.2°F15.1°C 47.8°F8.8°C 66% 10.7 mph N17.2 kmh N 13.0 mph20.9 kmh 30.27 in1025.1 mb 0.01 in0.3 mm 0.04 in/hr1.0 mm/hr 0.01 in0.3 mm
09:30 AM 59.2°F15.1°C 48.2°F9.0°C 67% 11.8 mph N19.0 kmh N 15.2 mph24.5 kmh 30.27 in1025.1 mb 0.00 in0.0 mm 0.00 in/hr0.0 mm/hr 0.00 in0.0 mm
09:15 AM 59.2°F15.1°C 48.2°F9.0°C 67% 9.9 mph N15.9 kmh N 13.6 mph21.9 kmh 30.27 in1025.1 mb 0.00 in0.0 mm 0.00 in/hr0.0 mm/hr 0.00 in0.0 mm
09:00 AM 58.6°F14.8°C 48.1°F8.9°C 68% 9.8 mph NNW15.8 kmh NNW 14.5 mph23.3 kmh 30.27 in1025.1 mb 0.00 in0.0 mm 0.00 in/hr0.0 mm/hr 0.00 in0.0 mm
08:45 AM 58.1°F14.5°C 48.0°F8.9°C 69% 12.3 mph N19.8 kmh N 15.2 mph24.5 kmh 30.26 in1024.7 mb 0.00 in0.0 mm 0.00 in/hr0.0 mm/hr 0.00 in0.0 mm
08:30 AM 57.6°F14.2°C 47.1°F8.4°C 68% 9.0 mph N14.5 kmh N 10.7 mph17.2 kmh 30.26 in1024.7 mb 0.00 in0.0 mm 0.00 in/hr0.0 mm/hr 0.00 in0.0 mm
08:15 AM 57.6°F14.2°C 47.1°F8.4°C 68% 12.0 mph N19.3 kmh N 15.2 mph24.5 kmh 30.26 in1024.7 mb 0.00 in0.0 mm 0.00 in/hr0.0 mm/hr 0.00 in0.0 mm
08:00 AM 57.4°F14.1°C 47.3°F8.5°C 69% 11.6 mph N18.7 kmh N 15.9 mph25.6 kmh 30.26 in1024.7 mb 0.00 in0.0 mm 0.00 in/hr0.0 mm/hr 0.00 in0.0 mm
07:45 AM 57.2°F14.0°C 47.9°F8.8°C 71% 11.1 mph N17.9 kmh N 14.5 mph23.3 kmh 30.26 in1024.7 mb 0.00 in0.0 mm 0.00 in/hr0.0 mm/hr 0.00 in0.0 mm
07:30 AM 56.8°F13.8°C 46.8°F8.2°C 69% 9.0 mph N14.5 kmh N 13.6 mph21.9 kmh 30.25 in1024.4 mb 0.00 in0.0 mm 0.00 in/hr0.0 mm/hr 0.00 in0.0 mm
07:15 AM 56.5°F13.6°C 47.2°F8.4°C 71% 10.2 mph NNW16.4 kmh NNW 12.1 mph19.5 kmh 30.26 in1024.7 mb 0.00 in0.0 mm 0.00 in/hr0.0 mm/hr 0.00 in0.0 mm
07:00 AM 56.1°F13.4°C 47.2°F8.4°C 72% 12.3 mph N19.8 kmh N 18.3 mph29.5 kmh 30.26 in1024.7 mb 0.00 in0.0 mm 0.00 in/hr0.0 mm/hr 0.00 in0.0 mm
06:45 AM 56.1°F13.4°C 48.0°F8.9°C 74% 10.4 mph N16.7 kmh N 15.9 mph25.6 kmh 30.26 in1024.7 mb 0.00 in0.0 mm 0.00 in/hr0.0 mm/hr 0.00 in0.0 mm
06:30 AM 56.3°F13.5°C 47.4°F8.6°C 72% 9.6 mph N15.4 kmh N 13.6 mph21.9 kmh 30.26 in1024.7 mb 0.00 in0.0 mm 0.00 in/hr0.0 mm/hr 0.00 in0.0 mm
06:15 AM 56.3°F13.5°C 46.3°F7.9°C 69% 11.2 mph N18.0 kmh N 15.2 mph24.5 kmh 30.26 in1024.7 mb 0.00 in0.0 mm 0.00 in/hr0.0 mm/hr 0.00 in0.0 mm
06:00 AM 56.5°F13.6°C 46.4°F8.0°C 69% 12.2 mph N19.6 kmh N 14.5 mph23.3 kmh 30.26 in1024.7 mb 0.00 in0.0 mm 0.00 in/hr0.0 mm/hr 0.00 in0.0 mm
05:45 AM 56.3°F13.5°C 45.1°F7.3°C 66% 11.3 mph N18.2 kmh N 13.6 mph21.9 kmh 30.25 in1024.4 mb 0.00 in0.0 mm 0.00 in/hr0.0 mm/hr 0.00 in0.0 mm
05:30 AM 56.1°F13.4°C 44.5°F6.9°C 65% 10.4 mph N16.7 kmh N 13.6 mph21.9 kmh 30.25 in1024.4 mb 0.00 in0.0 mm 0.00 in/hr0.0 mm/hr 0.00 in0.0 mm
05:15 AM 55.9°F13.3°C 44.4°F6.9°C 65% 12.7 mph N20.4 kmh N 15.9 mph25.6 kmh 30.25 in1024.4 mb 0.00 in0.0 mm 0.00 in/hr0.0 mm/hr 0.00 in0.0 mm
05:00 AM 55.8°F13.2°C 44.6°F7.0°C 66% 12.5 mph NNW20.1 kmh NNW 18.3 mph29.5 kmh 30.26 in1024.7 mb 0.00 in0.0 mm 0.00 in/hr0.0 mm/hr 0.00 in0.0 mm
04:45 AM 55.9°F13.3°C 45.5°F7.5°C 68% 10.5 mph N16.9 kmh N 15.9 mph25.6 kmh 30.25 in1024.4 mb 0.00 in0.0 mm 0.00 in/hr0.0 mm/hr 0.00 in0.0 mm
04:30 AM 55.9°F13.3°C 47.1°F8.4°C 72% 11.7 mph N18.8 kmh N 15.9 mph25.6 kmh 30.25 in1024.4 mb 0.00 in0.0 mm 0.00 in/hr0.0 mm/hr 0.00 in0.0 mm
04:15 AM 55.9°F13.3°C 48.8°F9.3°C 77% 10.0 mph N16.1 kmh N 12.1 mph19.5 kmh 30.26 in1024.7 mb 0.00 in0.0 mm 0.00 in/hr0.0 mm/hr 0.00 in0.0 mm
04:00 AM 55.9°F13.3°C 48.8°F9.3°C 77% 8.6 mph N13.8 kmh N 13.6 mph21.9 kmh 30.25 in1024.4 mb 0.00 in0.0 mm 0.00 in/hr0.0 mm/hr 0.00 in0.0 mm
03:45 AM 55.9°F13.3°C 48.8°F9.3°C 77% 9.6 mph N15.4 kmh N 12.1 mph19.5 kmh 30.25 in1024.4 mb 0.00 in0.0 mm 0.00 in/hr0.0 mm/hr 0.00 in0.0 mm
03:30 AM 56.1°F13.4°C 48.7°F9.3°C 76% 9.5 mph N15.3 kmh N 13.0 mph20.9 kmh 30.25 in1024.4 mb 0.00 in0.0 mm 0.00 in/hr0.0 mm/hr 0.00 in0.0 mm
03:15 AM 56.1°F13.4°C 49.0°F9.4°C 77% 10.0 mph N16.1 kmh N 12.1 mph19.5 kmh 30.25 in1024.4 mb 0.00 in0.0 mm 0.00 in/hr0.0 mm/hr 0.00 in0.0 mm
03:00 AM 56.3°F13.5°C 49.2°F9.6°C 77% 7.1 mph N11.4 kmh N 10.7 mph17.2 kmh 30.25 in1024.4 mb 0.00 in0.0 mm 0.00 in/hr0.0 mm/hr 0.00 in0.0 mm
02:45 AM 56.5°F13.6°C 49.0°F9.4°C 76% 9.4 mph N15.1 kmh N 13.0 mph20.9 kmh 30.25 in1024.4 mb 0.00 in0.0 mm 0.00 in/hr0.0 mm/hr 0.00 in0.0 mm
02:30 AM 56.5°F13.6°C 47.9°F8.8°C 73% 11.2 mph N18.0 kmh N 14.5 mph23.3 kmh 30.25 in1024.4 mb 0.00 in0.0 mm 0.00 in/hr0.0 mm/hr 0.00 in0.0 mm
02:15 AM 56.7°F13.7°C 48.5°F9.2°C 74% 12.5 mph N20.1 kmh N 17.4 mph28.0 kmh 30.26 in1024.7 mb 0.00 in0.0 mm 0.00 in/hr0.0 mm/hr 0.00 in0.0 mm
02:00 AM 56.7°F13.7°C 48.8°F9.3°C 75% 10.5 mph N16.9 kmh N 14.5 mph23.3 kmh 30.25 in1024.4 mb 0.00 in0.0 mm 0.00 in/hr0.0 mm/hr 0.00 in0.0 mm
01:45 AM 57.0°F13.9°C 49.5°F9.7°C 76% 11.4 mph N18.3 kmh N 14.5 mph23.3 kmh 30.26 in1024.7 mb 0.00 in0.0 mm 0.00 in/hr0.0 mm/hr 0.00 in0.0 mm
01:30 AM 57.0°F13.9°C 50.2°F10.1°C 78% 9.3 mph N15.0 kmh N 11.4 mph18.3 kmh 30.26 in1024.7 mb 0.00 in0.0 mm 0.00 in/hr0.0 mm/hr 0.00 in0.0 mm
01:15 AM 57.2°F14.0°C 50.1°F10.1°C 77% 10.9 mph N17.5 kmh N 15.2 mph24.5 kmh 30.26 in1024.7 mb 0.00 in0.0 mm 0.00 in/hr0.0 mm/hr 0.00 in0.0 mm
01:00 AM 57.2°F14.0°C 50.1°F10.1°C 77% 11.5 mph N18.5 kmh N 14.5 mph23.3 kmh 30.26 in1024.7 mb 0.00 in0.0 mm 0.00 in/hr0.0 mm/hr 0.00 in0.0 mm
12:45 AM 57.6°F14.2°C 50.4°F10.2°C 77% 12.0 mph N19.3 kmh N 15.2 mph24.5 kmh 30.26 in1024.7 mb 0.00 in0.0 mm 0.00 in/hr0.0 mm/hr 0.00 in0.0 mm
12:30 AM 57.6°F14.2°C 50.4°F10.2°C 77% 11.9 mph NNW19.2 kmh NNW 15.2 mph24.5 kmh 30.26 in1024.7 mb 0.00 in0.0 mm 0.00 in/hr0.0 mm/hr 0.00 in0.0 mm
12:15 AM 57.6°F14.2°C 50.8°F10.4°C 78% 9.7 mph N15.6 kmh N 14.5 mph23.3 kmh 30.26 in1024.7 mb 0.00 in0.0 mm 0.00 in/hr0.0 mm/hr 0.00 in0.0 mm
12:00 AM 57.9°F14.4°C 50.8°F10.4°C 77% 12.1 mph N19.5 kmh N 14.5 mph23.3 kmh 30.26 in1024.7 mb 0.00 in0.0 mm 0.00 in/hr0.0 mm/hr 0.00 in0.0 mm